createdAt,value
2017-09-21T00:01:56.609Z,10.79
2017-09-21T00:04:24.168Z,10.80
2017-09-21T00:06:51.852Z,10.82
2017-09-21T00:09:19.452Z,10.80
2017-09-21T00:11:47.152Z,10.79
2017-09-21T00:14:14.798Z,10.79
2017-09-21T00:16:42.391Z,10.78
2017-09-21T00:19:09.969Z,10.77
2017-09-21T00:21:37.945Z,10.76
2017-09-21T00:24:05.510Z,10.76
2017-09-21T00:26:33.093Z,10.72
2017-09-21T00:29:00.659Z,10.72
2017-09-21T00:31:28.358Z,10.72
2017-09-21T00:33:55.925Z,10.69
2017-09-21T00:36:23.553Z,10.69
2017-09-21T00:38:51.153Z,10.69
2017-09-21T00:41:18.759Z,10.66
2017-09-21T00:43:46.656Z,10.61
2017-09-21T00:46:14.266Z,10.59
2017-09-21T00:48:43.004Z,10.58
2017-09-21T00:51:10.584Z,10.57
2017-09-21T00:53:38.147Z,10.55
2017-09-21T00:56:05.725Z,10.55
2017-09-21T00:58:33.304Z,10.55
2017-09-21T01:01:00.955Z,10.56
2017-09-21T01:03:29.973Z,10.58
2017-09-21T01:05:57.819Z,10.54
2017-09-21T01:08:25.531Z,10.52
2017-09-21T01:10:53.175Z,10.52
2017-09-21T01:13:20.757Z,10.52
2017-09-21T01:15:48.314Z,10.52
2017-09-21T01:18:16.242Z,10.51
2017-09-21T01:20:43.821Z,10.50
2017-09-21T01:23:11.482Z,10.48
2017-09-21T01:25:39.026Z,10.47
2017-09-21T01:28:06.902Z,10.45
2017-09-21T01:30:34.456Z,10.45
2017-09-21T01:33:02.024Z,10.45
2017-09-21T01:35:29.614Z,10.44
2017-09-21T01:37:57.170Z,10.39
2017-09-21T01:40:24.774Z,10.35
2017-09-21T01:42:52.340Z,10.33
2017-09-21T01:45:19.940Z,10.31
2017-09-21T01:47:47.502Z,10.32
2017-09-21T01:50:15.413Z,10.31
2017-09-21T01:52:42.961Z,10.30
2017-09-21T01:55:10.514Z,10.28
2017-09-21T01:57:38.092Z,10.25
2017-09-21T02:00:05.775Z,10.24
2017-09-21T02:02:33.354Z,10.22
2017-09-21T02:05:00.917Z,10.21
2017-09-21T02:07:28.490Z,10.18
2017-09-21T02:09:56.064Z,10.17
2017-09-21T02:12:24.176Z,10.16
2017-09-21T02:14:51.735Z,10.15
2017-09-21T02:17:19.314Z,10.12
2017-09-21T02:19:47.077Z,10.10
2017-09-21T02:22:14.657Z,10.09
2017-09-21T02:24:42.276Z,10.05
2017-09-21T02:27:09.841Z,10.04
2017-09-21T02:29:38.016Z,10.04
2017-09-21T02:32:05.590Z,10.03
2017-09-21T02:34:33.444Z,10.00
2017-09-21T02:37:01.009Z,9.99
2017-09-21T02:39:28.605Z,9.97
2017-09-21T02:41:56.194Z,9.97
2017-09-21T02:44:23.775Z,9.95
2017-09-21T02:46:51.357Z,9.91
2017-09-21T02:49:18.910Z,9.89
2017-09-21T02:51:46.501Z,9.85
2017-09-21T02:54:14.270Z,9.81
2017-09-21T02:56:42.197Z,9.80
2017-09-21T02:59:09.756Z,9.76
2017-09-21T03:01:37.350Z,9.72
2017-09-21T03:04:06.400Z,9.70
2017-09-21T03:06:33.981Z,9.67
2017-09-21T03:09:01.559Z,9.66
2017-09-21T03:11:29.127Z,9.65
2017-09-21T03:13:56.715Z,9.61
2017-09-21T03:16:24.284Z,9.60
2017-09-21T03:18:52.179Z,9.54
2017-09-21T03:21:22.956Z,9.47
2017-09-21T03:23:51.799Z,9.45
2017-09-21T03:26:19.370Z,9.38
2017-09-21T03:28:47.071Z,9.32
2017-09-21T03:31:14.654Z,9.25
2017-09-21T03:33:42.212Z,9.24
2017-09-21T03:36:09.791Z,9.20
2017-09-21T03:38:37.397Z,9.20
2017-09-21T03:41:05.407Z,9.14
2017-09-21T03:43:32.975Z,9.11
2017-09-21T03:46:00.738Z,9.05
2017-09-21T03:48:28.293Z,9.00
2017-09-21T03:50:55.915Z,8.98
2017-09-21T03:53:23.519Z,8.94
2017-09-21T03:55:51.065Z,8.93
2017-09-21T03:58:18.669Z,8.94
2017-09-21T04:00:46.238Z,8.94
2017-09-21T04:03:14.678Z,8.93
2017-09-21T04:05:43.852Z,8.91
2017-09-21T04:08:11.391Z,8.88
2017-09-21T04:10:39.349Z,8.84
2017-09-21T04:13:06.922Z,8.88
2017-09-21T04:15:34.508Z,8.88
2017-09-21T04:18:02.052Z,8.90
2017-09-21T04:20:29.616Z,8.89
2017-09-21T04:22:57.177Z,8.90
2017-09-21T04:25:24.772Z,8.94
2017-09-21T04:27:52.345Z,8.96
2017-09-21T04:30:20.339Z,8.95
2017-09-21T04:32:47.919Z,8.93
2017-09-21T04:35:15.493Z,8.92
2017-09-21T04:37:43.757Z,8.94
2017-09-21T04:40:11.350Z,8.91
2017-09-21T04:42:39.092Z,8.92
2017-09-21T04:45:06.751Z,8.91
2017-09-21T04:47:35.274Z,8.89
2017-09-21T04:50:02.813Z,8.89
2017-09-21T04:52:30.817Z,8.89
2017-09-21T04:54:58.387Z,8.87
2017-09-21T04:57:25.955Z,8.87
2017-09-21T04:59:53.551Z,8.85
2017-09-21T05:02:21.116Z,8.87
2017-09-21T05:04:48.689Z,8.82
2017-09-21T05:07:16.284Z,8.83
2017-09-21T05:09:43.864Z,8.85
2017-09-21T05:12:11.428Z,8.88
2017-09-21T05:14:39.085Z,8.88
2017-09-21T05:17:06.649Z,8.86
2017-09-21T05:19:35.412Z,8.82
2017-09-21T05:22:02.993Z,8.81
2017-09-21T05:24:30.551Z,8.78
2017-09-21T05:26:58.676Z,8.77
2017-09-21T05:29:26.251Z,8.78
2017-09-21T05:31:53.832Z,8.77
2017-09-21T05:34:21.396Z,8.80
2017-09-21T05:36:49.076Z,8.81
2017-09-21T05:39:16.641Z,8.84
2017-09-21T05:44:18.046Z,8.81
2017-09-21T05:46:45.944Z,8.83
2017-09-21T05:49:13.510Z,8.86
2017-09-21T05:51:41.067Z,8.79
2017-09-21T05:54:08.642Z,8.80
2017-09-21T05:56:36.229Z,8.88
2017-09-21T05:59:03.794Z,8.94
2017-09-21T06:01:31.358Z,8.96
2017-09-21T06:03:59.275Z,9.00
2017-09-21T06:06:26.841Z,9.05
2017-09-21T06:08:54.446Z,9.06
2017-09-21T06:11:22.058Z,8.90
2017-09-21T06:13:49.628Z,8.90
2017-09-21T06:16:17.224Z,8.89
2017-09-21T06:18:44.824Z,8.91
2017-09-21T06:21:12.432Z,8.97
2017-09-21T06:23:41.012Z,9.01
2017-09-21T06:26:08.537Z,9.07
2017-09-21T06:28:36.079Z,9.07
2017-09-21T06:31:04.090Z,9.10
2017-09-21T06:33:31.666Z,9.16
2017-09-21T06:35:59.233Z,9.23
2017-09-21T06:38:26.828Z,9.27
2017-09-21T06:40:54.368Z,9.29
2017-09-21T06:43:22.044Z,9.30
2017-09-21T06:45:49.650Z,9.30
2017-09-21T06:48:17.326Z,9.33
2017-09-21T06:50:44.900Z,9.33
2017-09-21T06:53:12.485Z,9.30
2017-09-21T06:55:40.032Z,9.33
2017-09-21T06:58:07.592Z,9.40
2017-09-21T07:00:36.121Z,9.47
2017-09-21T07:03:03.665Z,9.56
2017-09-21T07:05:31.246Z,9.66
2017-09-21T07:07:58.805Z,9.66
2017-09-21T07:10:26.399Z,9.70
2017-09-21T07:12:54.565Z,9.71
2017-09-21T07:15:22.600Z,9.76
2017-09-21T07:17:50.751Z,9.85
2017-09-21T07:20:18.309Z,9.89
2017-09-21T07:22:45.878Z,9.96
2017-09-21T07:25:13.610Z,10.06
2017-09-21T07:27:41.219Z,10.15
2017-09-21T07:30:08.791Z,10.21
2017-09-21T07:32:36.397Z,10.28
2017-09-21T07:35:03.982Z,10.40
2017-09-21T07:37:31.857Z,10.44
2017-09-21T07:39:59.429Z,10.52
2017-09-21T07:42:27.301Z,10.56
2017-09-21T07:44:54.867Z,10.63
2017-09-21T07:47:22.442Z,10.72
2017-09-21T07:49:50.017Z,10.82
2017-09-21T07:52:17.598Z,10.88
2017-09-21T07:54:45.180Z,11.00
2017-09-21T07:57:12.745Z,11.05
2017-09-21T07:59:40.724Z,11.14
2017-09-21T08:02:08.363Z,11.24
2017-09-21T08:04:35.936Z,11.32
2017-09-21T08:07:03.539Z,11.49
2017-09-21T08:09:31.101Z,11.64
2017-09-21T08:11:58.686Z,11.81
2017-09-21T08:14:26.299Z,11.91
2017-09-21T08:16:54.246Z,11.88
2017-09-21T08:19:21.963Z,11.85
2017-09-21T08:21:49.532Z,11.84
2017-09-21T08:24:17.125Z,11.87
2017-09-21T08:26:44.689Z,11.98
2017-09-21T08:29:12.277Z,12.10
2017-09-21T08:31:39.867Z,12.17
2017-09-21T08:34:07.494Z,12.19
2017-09-21T08:36:35.194Z,12.23
2017-09-21T08:39:03.065Z,12.32
2017-09-21T08:41:30.625Z,12.44
2017-09-21T08:43:58.186Z,12.54
2017-09-21T08:46:25.759Z,12.61
2017-09-21T08:48:53.321Z,12.65
2017-09-21T08:51:20.927Z,12.74
2017-09-21T08:53:48.487Z,12.81
2017-09-21T08:56:16.093Z,12.87
2017-09-21T08:58:43.673Z,12.95
2017-09-21T09:01:11.343Z,13.03
2017-09-21T09:03:38.884Z,13.02
2017-09-21T09:06:06.788Z,13.09
2017-09-21T09:08:34.349Z,13.18
2017-09-21T09:11:01.913Z,13.21
2017-09-21T09:13:29.524Z,13.34
2017-09-21T09:15:57.092Z,13.44
2017-09-21T09:18:24.893Z,13.50
2017-09-21T09:20:52.435Z,13.56
2017-09-21T09:23:20.026Z,13.59
2017-09-21T09:25:47.644Z,13.66
2017-09-21T09:28:15.639Z,13.71
2017-09-21T09:30:43.338Z,13.84
2017-09-21T09:33:10.956Z,14.00
2017-09-21T09:35:38.546Z,14.11
2017-09-21T09:38:06.147Z,14.21
2017-09-21T09:40:33.715Z,14.29
2017-09-21T09:43:01.292Z,14.31
2017-09-21T09:45:28.880Z,14.33
2017-09-21T09:47:56.479Z,14.28
2017-09-21T09:50:24.514Z,14.38
2017-09-21T09:52:52.135Z,14.45
2017-09-21T09:55:19.719Z,14.48
2017-09-21T09:57:47.308Z,14.61
2017-09-21T10:00:14.899Z,14.71
2017-09-21T10:02:42.512Z,14.72
2017-09-21T10:05:10.109Z,14.85
2017-09-21T10:07:37.747Z,15.06
2017-09-21T10:10:05.314Z,15.20
2017-09-21T10:12:32.926Z,15.38
2017-09-21T10:15:00.552Z,15.53
2017-09-21T10:17:28.489Z,15.74
2017-09-21T10:19:56.086Z,15.84
2017-09-21T10:22:23.650Z,15.86
2017-09-21T10:24:51.233Z,16.00
2017-09-21T10:27:18.787Z,16.09
2017-09-21T10:29:46.393Z,16.16
2017-09-21T10:32:13.972Z,16.27
2017-09-21T10:34:41.545Z,16.17
2017-09-21T10:37:09.104Z,16.04
2017-09-21T10:39:37.048Z,15.89
2017-09-21T10:42:04.636Z,15.72
2017-09-21T10:44:32.221Z,15.56
2017-09-21T10:46:59.882Z,15.42
2017-09-21T10:49:27.449Z,15.21
2017-09-21T10:51:55.729Z,15.10
2017-09-21T10:54:23.288Z,15.01
2017-09-21T10:56:50.882Z,14.98
2017-09-21T10:59:18.454Z,15.00
2017-09-21T11:01:46.411Z,15.01
2017-09-21T11:04:13.971Z,15.09
2017-09-21T11:06:41.561Z,15.35
2017-09-21T11:09:09.173Z,15.62
2017-09-21T11:11:36.735Z,15.79
2017-09-21T11:14:04.318Z,15.98
2017-09-21T11:16:31.900Z,16.24
2017-09-21T11:18:59.455Z,16.50
2017-09-21T11:21:28.192Z,16.64
2017-09-21T11:23:56.516Z,16.82
2017-09-21T11:26:24.189Z,16.98
2017-09-21T11:28:51.767Z,17.05
2017-09-21T11:31:19.368Z,17.22
2017-09-21T11:33:46.938Z,17.16
2017-09-21T11:36:15.643Z,17.00
2017-09-21T11:38:43.233Z,16.88
2017-09-21T11:41:10.821Z,16.80
2017-09-21T11:43:39.507Z,16.70
2017-09-21T11:46:07.166Z,16.40
2017-09-21T11:48:34.764Z,16.20
2017-09-21T11:51:02.635Z,15.99
2017-09-21T11:53:30.217Z,15.90
2017-09-21T11:55:57.791Z,16.00
2017-09-21T11:58:25.410Z,16.19
2017-09-21T12:00:52.985Z,16.33
2017-09-21T12:03:20.589Z,16.48
2017-09-21T12:05:49.027Z,16.62
2017-09-21T12:08:16.635Z,16.81
2017-09-21T12:10:44.213Z,17.00
2017-09-21T12:13:11.821Z,17.19
2017-09-21T12:15:39.421Z,17.28
2017-09-21T12:18:07.024Z,17.32
2017-09-21T12:20:34.626Z,17.33
2017-09-21T12:23:02.188Z,17.49
2017-09-21T12:25:30.912Z,17.50
2017-09-21T12:27:58.450Z,17.42
2017-09-21T12:30:26.069Z,17.49
2017-09-21T12:32:53.647Z,17.65
2017-09-21T12:35:21.218Z,17.74
2017-09-21T12:37:48.776Z,17.74
2017-09-21T12:40:16.687Z,17.75
2017-09-21T12:42:44.247Z,17.65
2017-09-21T12:45:12.542Z,17.61
2017-09-21T12:47:40.134Z,17.45
2017-09-21T12:50:07.688Z,17.31
2017-09-21T12:52:35.784Z,17.11
2017-09-21T12:55:03.345Z,17.01
2017-09-21T12:57:33.764Z,16.85
2017-09-21T13:00:01.341Z,16.77
2017-09-21T13:02:28.916Z,16.69
2017-09-21T13:04:56.582Z,16.57
2017-09-21T13:07:24.121Z,16.49
2017-09-21T13:09:51.691Z,16.46
2017-09-21T13:12:19.418Z,16.40
2017-09-21T13:14:47.018Z,16.36
2017-09-21T13:17:14.571Z,16.36
2017-09-21T13:19:42.663Z,16.33
2017-09-21T13:22:10.241Z,16.25
2017-09-21T13:24:39.130Z,16.13
2017-09-21T13:27:07.778Z,16.08
2017-09-21T13:29:35.369Z,16.07
2017-09-21T13:32:02.969Z,16.02
2017-09-21T13:34:30.544Z,16.01
2017-09-21T13:36:58.120Z,15.98
2017-09-21T13:39:25.834Z,15.97
2017-09-21T13:41:53.676Z,15.92
2017-09-21T13:44:21.568Z,15.92
2017-09-21T13:46:49.145Z,15.90
2017-09-21T13:49:16.746Z,15.94
2017-09-21T13:51:44.337Z,16.04
2017-09-21T13:54:11.952Z,16.13
2017-09-21T13:56:39.679Z,16.09
2017-09-21T13:59:07.297Z,16.14
2017-09-21T14:01:34.871Z,16.33
2017-09-21T14:04:02.700Z,16.61
2017-09-21T14:06:30.268Z,16.88
2017-09-21T14:08:57.827Z,17.21
2017-09-21T14:11:25.415Z,17.40
2017-09-21T14:13:53.011Z,17.61
2017-09-21T14:16:20.597Z,17.89
2017-09-21T14:18:48.220Z,18.02
2017-09-21T14:21:15.800Z,18.22
2017-09-21T14:23:43.521Z,18.49
2017-09-21T14:26:11.120Z,18.78
2017-09-21T14:28:38.694Z,18.97
2017-09-21T14:31:06.638Z,19.19
2017-09-21T14:33:34.222Z,19.32
2017-09-21T14:36:01.794Z,19.37
2017-09-21T14:38:29.373Z,19.62
2017-09-21T14:40:56.933Z,19.42
2017-09-21T14:43:24.526Z,19.30
2017-09-21T14:45:52.063Z,19.21
2017-09-21T14:48:19.666Z,19.19
2017-09-21T14:50:47.244Z,19.41
2017-09-21T14:53:15.185Z,19.74
2017-09-21T14:55:42.734Z,19.73
2017-09-21T14:58:10.300Z,19.29
2017-09-21T15:00:37.885Z,18.90
2017-09-21T15:03:05.442Z,18.62
2017-09-21T15:05:33.013Z,18.53
2017-09-21T15:08:00.760Z,18.45
2017-09-21T15:10:28.330Z,18.13
2017-09-21T15:12:55.879Z,17.98
2017-09-21T15:15:23.849Z,17.85
2017-09-21T15:17:51.419Z,17.67
2017-09-21T15:20:19.010Z,17.60
2017-09-21T15:22:46.613Z,17.51
2017-09-21T15:25:14.159Z,17.44
2017-09-21T15:27:41.938Z,17.39
2017-09-21T15:30:09.717Z,17.28
2017-09-21T15:32:37.356Z,17.23
2017-09-21T15:35:05.036Z,17.11
2017-09-21T15:37:33.005Z,16.99
2017-09-21T15:40:00.594Z,16.89
2017-09-21T15:42:28.183Z,16.73
2017-09-21T15:44:55.816Z,16.66
2017-09-21T15:47:23.385Z,16.60
2017-09-21T15:49:51.138Z,16.53
2017-09-21T15:52:18.819Z,16.51
2017-09-21T15:54:46.759Z,16.52
2017-09-21T15:57:14.334Z,16.48
2017-09-21T15:59:41.903Z,16.41
2017-09-21T16:02:09.628Z,16.34
2017-09-21T16:04:37.210Z,16.28
2017-09-21T16:07:04.773Z,16.22
2017-09-21T16:09:32.316Z,16.16
2017-09-21T16:12:00.290Z,16.10
2017-09-21T16:14:27.893Z,16.01
2017-09-21T16:16:55.475Z,15.93
2017-09-21T16:19:23.417Z,15.87
2017-09-21T16:21:51.173Z,15.84
2017-09-21T16:24:18.774Z,15.78
2017-09-21T16:26:46.374Z,15.75
2017-09-21T16:29:14.963Z,15.71
2017-09-21T16:31:43.930Z,15.66
2017-09-21T16:34:12.317Z,15.60
2017-09-21T16:36:40.379Z,15.53
2017-09-21T16:39:08.166Z,15.46
2017-09-21T16:41:36.301Z,15.39
2017-09-21T16:44:07.175Z,15.31
2017-09-21T16:46:34.838Z,15.23
2017-09-21T16:49:02.459Z,15.18
2017-09-21T16:51:30.075Z,15.09
2017-09-21T16:53:57.684Z,15.04
2017-09-21T16:56:25.696Z,15.00
2017-09-21T16:58:53.289Z,14.94
2017-09-21T17:01:20.904Z,14.87
2017-09-21T17:03:48.485Z,14.81
2017-09-21T17:06:16.021Z,14.74
2017-09-21T17:08:43.783Z,14.66
2017-09-21T17:11:11.345Z,14.57
2017-09-21T17:13:38.948Z,14.49
2017-09-21T17:16:06.522Z,14.44
2017-09-21T17:18:34.522Z,14.37
2017-09-21T17:21:02.117Z,14.30
2017-09-21T17:23:29.702Z,14.22
2017-09-21T17:25:57.325Z,14.15
2017-09-21T17:28:24.905Z,14.08
2017-09-21T17:30:52.480Z,14.01
2017-09-21T17:33:20.063Z,13.94
2017-09-21T17:35:47.664Z,13.88
2017-09-21T17:38:15.241Z,13.85
2017-09-21T17:40:44.123Z,13.80
2017-09-21T17:43:11.692Z,13.77
2017-09-21T17:45:39.219Z,13.74
2017-09-21T17:48:06.788Z,13.71
2017-09-21T17:50:34.348Z,13.67
2017-09-21T17:53:01.961Z,13.63
2017-09-21T17:55:29.521Z,13.57
2017-09-21T17:57:57.138Z,13.52
2017-09-21T18:00:24.734Z,13.48
2017-09-21T18:02:52.327Z,13.41
2017-09-21T18:05:19.960Z,13.36
2017-09-21T18:07:47.533Z,13.28
2017-09-21T18:10:15.121Z,13.24
2017-09-21T18:12:42.756Z,13.21
2017-09-21T18:15:10.379Z,13.13
2017-09-21T18:17:38.008Z,13.09
2017-09-21T18:20:06.000Z,13.05
2017-09-21T18:22:34.384Z,13.01
2017-09-21T18:25:01.953Z,12.97
2017-09-21T18:27:31.270Z,12.92
2017-09-21T18:29:58.859Z,12.87
2017-09-21T18:32:26.472Z,12.81
2017-09-21T18:34:54.062Z,12.77
2017-09-21T18:37:21.660Z,12.70
2017-09-21T18:39:49.280Z,12.67
2017-09-21T18:42:17.977Z,12.65
2017-09-21T18:44:45.696Z,12.63
2017-09-21T18:47:13.767Z,12.60
2017-09-21T18:49:41.368Z,12.57
2017-09-21T18:52:09.020Z,12.52
2017-09-21T18:54:36.642Z,12.50
2017-09-21T18:57:04.272Z,12.48
2017-09-21T18:59:31.904Z,12.43
2017-09-21T19:02:00.149Z,12.40
2017-09-21T19:04:27.772Z,12.34
2017-09-21T19:06:55.444Z,12.32
2017-09-21T19:09:24.167Z,12.28
2017-09-21T19:11:51.759Z,12.23
2017-09-21T19:14:19.361Z,12.20
2017-09-21T19:16:46.955Z,12.14
2017-09-21T19:19:14.911Z,12.06
2017-09-21T19:21:42.759Z,12.00
2017-09-21T19:24:10.949Z,11.85
2017-09-21T19:26:38.576Z,11.75
2017-09-21T19:29:06.275Z,11.71
2017-09-21T19:31:34.165Z,11.70
2017-09-21T19:34:01.938Z,11.68
2017-09-21T19:36:29.717Z,11.65
2017-09-21T19:38:57.344Z,11.60
2017-09-21T19:41:24.981Z,11.58
2017-09-21T19:43:52.594Z,11.56
2017-09-21T19:46:20.542Z,11.54
2017-09-21T19:48:48.314Z,11.51
2017-09-21T19:51:15.898Z,11.45
2017-09-21T19:53:43.491Z,11.40
2017-09-21T19:56:11.074Z,11.35
2017-09-21T19:58:39.052Z,11.35
2017-09-21T20:01:06.617Z,11.27
2017-09-21T20:03:34.208Z,11.15
2017-09-21T20:06:03.358Z,11.10
2017-09-21T20:08:31.055Z,11.08
2017-09-21T20:10:58.785Z,11.08
2017-09-21T20:13:26.366Z,11.07
2017-09-21T20:15:54.269Z,11.05
2017-09-21T20:18:21.832Z,11.02
2017-09-21T20:20:49.783Z,10.99
2017-09-21T20:23:17.763Z,10.98
2017-09-21T20:25:45.356Z,10.97
2017-09-21T20:28:12.951Z,10.96
2017-09-21T20:30:40.919Z,10.94
2017-09-21T20:33:09.646Z,10.92
2017-09-21T20:35:37.352Z,10.88
2017-09-21T20:38:05.706Z,10.85
2017-09-21T20:40:33.340Z,10.83
2017-09-21T20:43:00.922Z,10.80
2017-09-21T20:45:28.651Z,10.77
2017-09-21T20:47:56.740Z,10.72
2017-09-21T20:50:24.321Z,10.69
2017-09-21T20:52:51.886Z,10.68
2017-09-21T20:55:19.812Z,10.65
2017-09-21T20:57:47.389Z,10.62
2017-09-21T21:00:15.550Z,10.59
2017-09-21T21:02:43.491Z,10.56
2017-09-21T21:05:11.053Z,10.53
2017-09-21T21:07:38.614Z,10.50
2017-09-21T21:10:06.582Z,10.41
2017-09-21T21:12:34.162Z,10.32
2017-09-21T21:15:01.741Z,10.30
2017-09-21T21:17:29.305Z,10.28
2017-09-21T21:19:56.882Z,10.27
2017-09-21T21:22:24.776Z,10.23
2017-09-21T21:24:52.359Z,10.22
2017-09-21T21:27:19.942Z,10.18
2017-09-21T21:29:47.880Z,10.14
2017-09-21T21:32:15.457Z,10.11
2017-09-21T21:34:43.023Z,10.06
2017-09-21T21:37:10.871Z,10.03
2017-09-21T21:39:38.437Z,10.02
2017-09-21T21:42:05.997Z,10.00
2017-09-21T21:44:33.582Z,9.97
2017-09-21T21:47:01.172Z,9.95
2017-09-21T21:49:28.773Z,9.92
2017-09-21T21:51:56.398Z,9.90
2017-09-21T21:54:24.275Z,9.88
2017-09-21T21:56:51.855Z,9.85
2017-09-21T21:59:19.418Z,9.84
2017-09-21T22:01:47.185Z,9.83
2017-09-21T22:04:14.749Z,9.82
2017-09-21T22:06:42.678Z,9.79
2017-09-21T22:09:10.258Z,9.77
2017-09-21T22:11:37.818Z,9.75
2017-09-21T22:14:05.699Z,9.72
2017-09-21T22:16:33.262Z,9.70
2017-09-21T22:19:00.845Z,9.66
2017-09-21T22:21:28.697Z,9.64
2017-09-21T22:23:56.269Z,9.64
2017-09-21T22:26:23.846Z,9.63
2017-09-21T22:28:51.703Z,9.60
2017-09-21T22:31:19.289Z,9.58
2017-09-21T22:33:46.846Z,9.57
2017-09-21T22:36:14.444Z,9.56
2017-09-21T22:38:42.049Z,9.54
2017-09-21T22:41:09.911Z,9.50
2017-09-21T22:43:37.470Z,9.46
2017-09-21T22:46:05.231Z,9.41
2017-09-21T22:48:32.814Z,9.37
2017-09-21T22:51:00.401Z,9.38
2017-09-21T22:53:28.354Z,9.40
2017-09-21T22:55:55.911Z,9.41
2017-09-21T22:58:23.465Z,9.41
2017-09-21T23:00:51.355Z,9.41
2017-09-21T23:03:18.931Z,9.40
2017-09-21T23:05:46.509Z,9.36
2017-09-21T23:08:14.088Z,9.33
2017-09-21T23:10:41.648Z,9.31
2017-09-21T23:13:10.965Z,9.28
2017-09-21T23:15:38.700Z,9.26
2017-09-21T23:18:06.271Z,9.22
2017-09-21T23:20:34.135Z,9.15
2017-09-21T23:23:01.711Z,9.10
2017-09-21T23:25:29.435Z,9.06
2017-09-21T23:27:57.298Z,9.00
2017-09-21T23:30:24.858Z,9.01
2017-09-21T23:32:52.424Z,9.00
2017-09-21T23:35:20.001Z,9.00
2017-09-21T23:37:47.571Z,8.97
2017-09-21T23:40:15.467Z,8.98
2017-09-21T23:42:43.007Z,8.97
2017-09-21T23:45:10.574Z,8.97
2017-09-21T23:47:38.505Z,8.95
2017-09-21T23:50:06.071Z,8.93
2017-09-21T23:52:33.647Z,8.93
2017-09-21T23:55:01.583Z,8.91
2017-09-21T23:57:29.151Z,8.88
2017-09-21T23:59:56.709Z,8.84
